sensor_id;sensor_type;location;lat;lon;timestamp;pressure;altitude;pressure_sealevel;temperature;humidity
9521;BME280;4798;41.574;23.734;2024-01-10T00:02:12;96102.69;;;2.48;64.35
9521;BME280;4798;41.574;23.734;2024-01-10T00:04:41;96108.97;;;2.80;60.54
9521;BME280;4798;41.574;23.734;2024-01-10T00:07:09;96106.72;;;3.09;60.93
9521;BME280;4798;41.574;23.734;2024-01-10T00:09:38;96102.72;;;2.94;59.85
9521;BME280;4798;41.574;23.734;2024-01-10T00:12:07;96112.38;;;3.26;60.62
9521;BME280;4798;41.574;23.734;2024-01-10T00:14:36;96091.84;;;2.77;59.91
9521;BME280;4798;41.574;23.734;2024-01-10T00:17:06;96113.41;;;2.86;61.07
9521;BME280;4798;41.574;23.734;2024-01-10T00:19:34;96103.13;;;2.84;59.77
9521;BME280;4798;41.574;23.734;2024-01-10T00:22:03;96117.00;;;2.91;60.62
9521;BME280;4798;41.574;23.734;2024-01-10T00:24:32;96123.28;;;3.03;61.59
9521;BME280;4798;41.574;23.734;2024-01-10T00:27:00;96098.09;;;2.96;60.41
9521;BME280;4798;41.574;23.734;2024-01-10T00:29:29;96127.09;;;2.68;60.19
9521;BME280;4798;41.574;23.734;2024-01-10T00:31:58;96132.53;;;3.06;64.93
9521;BME280;4798;41.574;23.734;2024-01-10T00:34:28;96110.16;;;3.10;60.77
9521;BME280;4798;41.574;23.734;2024-01-10T00:36:57;96126.66;;;3.30;60.14
9521;BME280;4798;41.574;23.734;2024-01-10T00:39:25;96127.88;;;3.21;60.44
9521;BME280;4798;41.574;23.734;2024-01-10T00:41:54;96137.38;;;2.96;59.58
9521;BME280;4798;41.574;23.734;2024-01-10T00:44:23;96134.56;;;2.91;60.43
9521;BME280;4798;41.574;23.734;2024-01-10T00:46:51;96135.75;;;3.08;60.95
9521;BME280;4798;41.574;23.734;2024-01-10T00:49:20;96139.16;;;3.15;60.58
9521;BME280;4798;41.574;23.734;2024-01-10T00:51:50;96134.94;;;2.88;61.34
9521;BME280;4798;41.574;23.734;2024-01-10T00:54:19;96092.47;;;2.86;62.06
9521;BME280;4798;41.574;23.734;2024-01-10T00:56:47;96133.72;;;2.84;61.35
9521;BME280;4798;41.574;23.734;2024-01-10T00:59:17;96130.91;;;2.79;61.13
9521;BME280;4798;41.574;23.734;2024-01-10T01:01:46;96145.00;;;2.78;60.89
9521;BME280;4798;41.574;23.734;2024-01-10T01:04:14;96145.44;;;2.88;60.80
9521;BME280;4798;41.574;23.734;2024-01-10T01:06:43;96138.16;;;3.22;61.98
9521;BME280;4798;41.574;23.734;2024-01-10T01:09:13;96148.03;;;2.88;60.82
9521;BME280;4798;41.574;23.734;2024-01-10T01:11:42;96123.25;;;2.84;61.98
9521;BME280;4798;41.574;23.734;2024-01-10T01:14:11;96139.00;;;3.03;64.43
9521;BME280;4798;41.574;23.734;2024-01-10T01:16:39;96139.97;;;3.29;61.44
9521;BME280;4798;41.574;23.734;2024-01-10T01:19:08;96140.59;;;2.98;60.35
9521;BME280;4798;41.574;23.734;2024-01-10T01:21:37;96133.53;;;3.05;60.73
9521;BME280;4798;41.574;23.734;2024-01-10T01:24:06;96140.78;;;3.16;59.94
9521;BME280;4798;41.574;23.734;2024-01-10T01:26:35;96146.00;;;3.36;59.71
9521;BME280;4798;41.574;23.734;2024-01-10T01:29:04;96143.16;;;3.37;60.43
9521;BME280;4798;41.574;23.734;2024-01-10T01:31:33;96125.88;;;3.03;60.10
9521;BME280;4798;41.574;23.734;2024-01-10T01:34:02;96134.31;;;3.38;63.21
9521;BME280;4798;41.574;23.734;2024-01-10T01:36:30;96143.75;;;3.39;60.12
9521;BME280;4798;41.574;23.734;2024-01-10T01:38:59;96139.56;;;3.25;59.62
9521;BME280;4798;41.574;23.734;2024-01-10T01:41:28;96143.75;;;3.52;60.63
9521;BME280;4798;41.574;23.734;2024-01-10T01:43:58;96148.97;;;3.52;59.84
9521;BME280;4798;41.574;23.734;2024-01-10T01:46:27;96145.97;;;3.55;59.94
9521;BME280;4798;41.574;23.734;2024-01-10T01:48:56;96141.69;;;3.74;59.03
9521;BME280;4798;41.574;23.734;2024-01-10T01:51:25;96135.88;;;3.59;59.93
9521;BME280;4798;41.574;23.734;2024-01-10T01:53:56;96136.06;;;3.57;59.49
9521;BME280;4798;41.574;23.734;2024-01-10T01:56:25;96146.56;;;3.51;59.65
9521;BME280;4798;41.574;23.734;2024-01-10T01:58:54;96131.59;;;3.64;59.47
9521;BME280;4798;41.574;23.734;2024-01-10T02:01:24;96145.56;;;3.58;59.88
9521;BME280;4798;41.574;23.734;2024-01-10T02:03:53;96145.16;;;3.61;59.53
9521;BME280;4798;41.574;23.734;2024-01-10T02:06:23;96138.91;;;3.49;59.58
9521;BME280;4798;41.574;23.734;2024-01-10T02:08:52;96141.72;;;3.54;59.27
9521;BME280;4798;41.574;23.734;2024-01-10T02:11:21;96141.69;;;3.67;58.91
9521;BME280;4798;41.574;23.734;2024-01-10T02:13:50;96146.56;;;3.51;59.56
9521;BME280;4798;41.574;23.734;2024-01-10T02:16:18;96145.78;;;3.44;61.47
9521;BME280;4798;41.574;23.734;2024-01-10T02:18:48;96082.78;;;3.06;61.07
9521;BME280;4798;41.574;23.734;2024-01-10T02:21:20;96148.19;;;3.45;60.03
9521;BME280;4798;41.574;23.734;2024-01-10T02:23:50;96136.91;;;3.45;59.68
9521;BME280;4798;41.574;23.734;2024-01-10T02:26:20;96141.53;;;3.49;59.56
9521;BME280;4798;41.574;23.734;2024-01-10T02:28:48;96141.06;;;3.72;59.88
9521;BME280;4798;41.574;23.734;2024-01-10T02:31:17;96127.19;;;3.65;59.79
9521;BME280;4798;41.574;23.734;2024-01-10T02:33:46;96038.41;;;3.17;59.35
9521;BME280;4798;41.574;23.734;2024-01-10T02:36:14;96117.09;;;3.62;59.20
9521;BME280;4798;41.574;23.734;2024-01-10T02:38:43;96131.81;;;3.63;59.52
9521;BME280;4798;41.574;23.734;2024-01-10T02:41:12;96126.28;;;3.91;59.14
9521;BME280;4798;41.574;23.734;2024-01-10T02:43:42;96131.16;;;3.80;59.30
9521;BME280;4798;41.574;23.734;2024-01-10T02:46:10;96131.72;;;3.96;59.28
9521;BME280;4798;41.574;23.734;2024-01-10T02:48:39;96123.94;;;3.69;58.63
9521;BME280;4798;41.574;23.734;2024-01-10T02:51:07;96128.00;;;3.65;59.93
9521;BME280;4798;41.574;23.734;2024-01-10T02:53:36;96120.16;;;3.52;60.60
9521;BME280;4798;41.574;23.734;2024-01-10T02:56:05;96130.84;;;3.44;60.26
9521;BME280;4798;41.574;23.734;2024-01-10T02:58:34;96124.59;;;3.58;59.84
9521;BME280;4798;41.574;23.734;2024-01-10T03:01:04;96117.03;;;3.88;60.00
9521;BME280;4798;41.574;23.734;2024-01-10T03:03:33;96129.88;;;4.03;59.51
9521;BME280;4798;41.574;23.734;2024-01-10T03:06:02;96127.53;;;3.81;59.33
9521;BME280;4798;41.574;23.734;2024-01-10T03:08:31;96124.28;;;3.86;59.91
9521;BME280;4798;41.574;23.734;2024-01-10T03:11:00;96121.84;;;3.84;59.99
9521;BME280;4798;41.574;23.734;2024-01-10T03:13:29;96123.53;;;3.79;59.46
9521;BME280;4798;41.574;23.734;2024-01-10T03:15:57;96126.09;;;3.92;60.00
9521;BME280;4798;41.574;23.734;2024-01-10T03:18:28;96119.81;;;4.00;59.09
9521;BME280;4798;41.574;23.734;2024-01-10T03:20:57;96152.50;;;3.91;59.39
9521;BME280;4798;41.574;23.734;2024-01-10T03:23:26;96110.19;;;3.87;59.53
9521;BME280;4798;41.574;23.734;2024-01-10T03:25:56;96120.34;;;3.57;59.57
9521;BME280;4798;41.574;23.734;2024-01-10T03:28:24;96115.66;;;3.72;60.07
9521;BME280;4798;41.574;23.734;2024-01-10T03:30:53;96118.28;;;3.72;60.22
9521;BME280;4798;41.574;23.734;2024-01-10T03:33:22;96116.88;;;3.76;59.76
9521;BME280;4798;41.574;23.734;2024-01-10T03:35:52;96096.34;;;3.60;60.09
9521;BME280;4798;41.574;23.734;2024-01-10T03:38:21;96120.78;;;3.35;59.66
9521;BME280;4798;41.574;23.734;2024-01-10T03:40:49;96110.50;;;3.46;60.52
9521;BME280;4798;41.574;23.734;2024-01-10T03:43:18;96110.81;;;3.76;59.61
9521;BME280;4798;41.574;23.734;2024-01-10T03:45:46;96113.78;;;3.93;59.16
9521;BME280;4798;41.574;23.734;2024-01-10T03:48:15;96111.06;;;3.61;59.00
9521;BME280;4798;41.574;23.734;2024-01-10T03:50:44;96112.25;;;3.65;59.45
9521;BME280;4798;41.574;23.734;2024-01-10T03:53:14;96110.22;;;3.74;58.51
9521;BME280;4798;41.574;23.734;2024-01-10T03:55:42;96053.53;;;3.09;59.62
9521;BME280;4798;41.574;23.734;2024-01-10T03:58:11;96103.88;;;3.37;59.67
9521;BME280;4798;41.574;23.734;2024-01-10T04:00:40;96127.25;;;3.39;59.54
9521;BME280;4798;41.574;23.734;2024-01-10T04:03:09;96131.47;;;3.46;59.19
9521;BME280;4798;41.574;23.734;2024-01-10T04:05:37;96128.28;;;3.31;59.58
9521;BME280;4798;41.574;23.734;2024-01-10T04:08:06;96133.09;;;3.41;59.28
9521;BME280;4798;41.574;23.734;2024-01-10T04:10:37;96077.03;;;3.48;59.67
9521;BME280;4798;41.574;23.734;2024-01-10T04:13:05;96114.34;;;3.44;59.79
9521;BME280;4798;41.574;23.734;2024-01-10T04:15:34;96130.28;;;3.29;59.72
9521;BME280;4798;41.574;23.734;2024-01-10T04:18:03;96125.16;;;3.67;60.23
9521;BME280;4798;41.574;23.734;2024-01-10T04:20:32;96136.19;;;3.89;59.99
9521;BME280;4798;41.574;23.734;2024-01-10T04:23:01;96129.81;;;4.22;59.91
9521;BME280;4798;41.574;23.734;2024-01-10T04:25:29;96127.00;;;3.66;60.19
9521;BME280;4798;41.574;23.734;2024-01-10T04:28:00;96130.72;;;3.90;60.33
9521;BME280;4798;41.574;23.734;2024-01-10T04:30:28;96058.28;;;3.45;60.14
9521;BME280;4798;41.574;23.734;2024-01-10T04:32:57;96137.94;;;4.01;60.88
9521;BME280;4798;41.574;23.734;2024-01-10T04:35:26;96139.84;;;4.32;60.47
9521;BME280;4798;41.574;23.734;2024-01-10T04:37:55;96081.25;;;4.07;60.53
9521;BME280;4798;41.574;23.734;2024-01-10T04:40:24;96117.16;;;4.06;60.40
9521;BME280;4798;41.574;23.734;2024-01-10T04:42:53;96135.41;;;4.26;60.16
9521;BME280;4798;41.574;23.734;2024-01-10T04:45:23;96136.69;;;4.17;60.00
9521;BME280;4798;41.574;23.734;2024-01-10T04:47:52;96120.34;;;4.15;60.15
9521;BME280;4798;41.574;23.734;2024-01-10T04:50:20;96136.72;;;4.04;60.21
9521;BME280;4798;41.574;23.734;2024-01-10T04:52:49;96126.47;;;3.96;60.00
9521;BME280;4798;41.574;23.734;2024-01-10T04:55:18;96133.53;;;3.95;59.15
9521;BME280;4798;41.574;23.734;2024-01-10T04:57:46;96101.91;;;3.83;60.04
9521;BME280;4798;41.574;23.734;2024-01-10T05:00:15;96127.41;;;4.08;59.90
9521;BME280;4798;41.574;23.734;2024-01-10T05:02:45;96126.38;;;4.15;59.76
9521;BME280;4798;41.574;23.734;2024-01-10T05:05:17;96133.41;;;4.21;59.63
9521;BME280;4798;41.574;23.734;2024-01-10T05:07:51;96123.75;;;4.22;59.29
9521;BME280;4798;41.574;23.734;2024-01-10T05:10:20;96136.63;;;4.30;59.80
9521;BME280;4798;41.574;23.734;2024-01-10T05:12:48;96139.31;;;4.48;59.12
9521;BME280;4798;41.574;23.734;2024-01-10T05:15:17;96134.25;;;4.53;59.00
9521;BME280;4798;41.574;23.734;2024-01-10T05:17:47;96133.25;;;4.54;60.43
9521;BME280;4798;41.574;23.734;2024-01-10T05:20:16;96099.78;;;4.43;60.84
9521;BME280;4798;41.574;23.734;2024-01-10T05:22:45;96150.47;;;4.75;61.49
9521;BME280;4798;41.574;23.734;2024-01-10T05:25:13;96109.22;;;4.19;60.98
9521;BME280;4798;41.574;23.734;2024-01-10T05:27:45;96088.25;;;4.13;61.00
9521;BME280;4798;41.574;23.734;2024-01-10T05:30:14;96121.00;;;4.41;61.68
9521;BME280;4798;41.574;23.734;2024-01-10T05:32:44;96157.63;;;4.61;61.30
9521;BME280;4798;41.574;23.734;2024-01-10T05:35:15;96172.41;;;4.56;61.75
9521;BME280;4798;41.574;23.734;2024-01-10T05:37:43;96174.88;;;4.44;61.71
9521;BME280;4798;41.574;23.734;2024-01-10T05:40:12;96177.22;;;4.27;61.90
9521;BME280;4798;41.574;23.734;2024-01-10T05:42:41;96153.06;;;4.06;62.03
9521;BME280;4798;41.574;23.734;2024-01-10T05:45:09;96180.25;;;4.18;61.63
9521;BME280;4798;41.574;23.734;2024-01-10T05:47:38;96181.66;;;4.20;61.44
9521;BME280;4798;41.574;23.734;2024-01-10T05:50:08;96179.84;;;4.21;61.66
9521;BME280;4798;41.574;23.734;2024-01-10T05:52:38;96129.00;;;4.15;61.87
9521;BME280;4798;41.574;23.734;2024-01-10T05:55:07;96143.81;;;4.41;61.25
9521;BME280;4798;41.574;23.734;2024-01-10T05:57:36;96164.03;;;4.34;61.23
9521;BME280;4798;41.574;23.734;2024-01-10T06:00:06;96156.13;;;4.40;61.89
9521;BME280;4798;41.574;23.734;2024-01-10T06:02:37;96195.06;;;4.81;60.25
9521;BME280;4798;41.574;23.734;2024-01-10T06:05:06;96192.97;;;4.65;60.43
9521;BME280;4798;41.574;23.734;2024-01-10T06:07:37;96196.34;;;4.34;61.82
9521;BME280;4798;41.574;23.734;2024-01-10T06:10:07;96197.25;;;4.53;61.84
9521;BME280;4798;41.574;23.734;2024-01-10T06:12:37;96160.75;;;4.45;61.28
9521;BME280;4798;41.574;23.734;2024-01-10T06:15:07;96154.72;;;4.44;60.88
9521;BME280;4798;41.574;23.734;2024-01-10T06:17:37;96201.63;;;4.97;61.02
9521;BME280;4798;41.574;23.734;2024-01-10T06:20:07;96204.19;;;5.10;60.72
9521;BME280;4798;41.574;23.734;2024-01-10T06:22:37;96148.66;;;4.44;61.89
9521;BME280;4798;41.574;23.734;2024-01-10T06:25:07;96212.28;;;4.77;61.43
9521;BME280;4798;41.574;23.734;2024-01-10T06:27:36;96213.53;;;4.99;61.39
9521;BME280;4798;41.574;23.734;2024-01-10T06:30:05;96217.28;;;4.85;62.80
9521;BME280;4798;41.574;23.734;2024-01-10T06:32:34;96209.91;;;5.00;62.36
9521;BME280;4798;41.574;23.734;2024-01-10T06:35:04;96206.91;;;4.97;61.97
9521;BME280;4798;41.574;23.734;2024-01-10T06:37:33;96221.69;;;5.23;62.07
9521;BME280;4798;41.574;23.734;2024-01-10T06:40:05;96143.66;;;4.67;61.04
9521;BME280;4798;41.574;23.734;2024-01-10T06:42:34;96221.00;;;5.34;62.88
9521;BME280;4798;41.574;23.734;2024-01-10T06:45:07;96211.56;;;5.26;61.83
9521;BME280;4798;41.574;23.734;2024-01-10T06:47:36;96197.59;;;5.26;62.19
9521;BME280;4798;41.574;23.734;2024-01-10T06:50:05;96220.28;;;5.45;62.06
9521;BME280;4798;41.574;23.734;2024-01-10T06:52:36;96196.50;;;5.08;61.16
9521;BME280;4798;41.574;23.734;2024-01-10T06:55:07;96179.97;;;5.01;60.48
9521;BME280;4798;41.574;23.734;2024-01-10T06:57:36;96169.94;;;4.92;61.37
9521;BME280;4798;41.574;23.734;2024-01-10T07:00:06;96230.22;;;5.18;60.66
9521;BME280;4798;41.574;23.734;2024-01-10T07:02:38;96241.13;;;5.15;61.03
9521;BME280;4798;41.574;23.734;2024-01-10T07:05:08;96218.88;;;5.18;61.08
9521;BME280;4798;41.574;23.734;2024-01-10T07:07:37;96237.44;;;5.23;60.17
9521;BME280;4798;41.574;23.734;2024-01-10T07:10:08;96197.56;;;5.01;60.25
9521;BME280;4798;41.574;23.734;2024-01-10T07:12:38;96226.50;;;5.26;59.62
9521;BME280;4798;41.574;23.734;2024-01-10T07:15:07;96240.25;;;5.52;59.66
9521;BME280;4798;41.574;23.734;2024-01-10T07:17:37;96177.09;;;4.85;58.52
9521;BME280;4798;41.574;23.734;2024-01-10T07:20:07;96247.97;;;5.23;59.94
9521;BME280;4798;41.574;23.734;2024-01-10T07:22:39;96259.66;;;5.27;58.93
9521;BME280;4798;41.574;23.734;2024-01-10T07:25:13;96258.50;;;5.47;60.13
9521;BME280;4798;41.574;23.734;2024-01-10T07:27:42;96257.69;;;5.71;58.24
9521;BME280;4798;41.574;23.734;2024-01-10T07:30:11;96248.84;;;5.66;58.53
9521;BME280;4798;41.574;23.734;2024-01-10T07:32:41;96255.41;;;5.75;57.88
9521;BME280;4798;41.574;23.734;2024-01-10T07:35:11;96183.25;;;5.22;57.42
9521;BME280;4798;41.574;23.734;2024-01-10T07:37:41;96254.78;;;5.55;58.59
9521;BME280;4798;41.574;23.734;2024-01-10T07:40:12;96263.31;;;5.75;58.75
9521;BME280;4798;41.574;23.734;2024-01-10T07:42:42;96251.50;;;5.84;58.68
9521;BME280;4798;41.574;23.734;2024-01-10T07:45:11;96233.47;;;5.88;57.55
9521;BME280;4798;41.574;23.734;2024-01-10T07:47:39;96256.09;;;6.13;57.28
9521;BME280;4798;41.574;23.734;2024-01-10T07:50:11;96234.47;;;6.11;57.37
9521;BME280;4798;41.574;23.734;2024-01-10T07:52:42;96265.78;;;6.19;57.45
9521;BME280;4798;41.574;23.734;2024-01-10T07:55:12;96264.97;;;6.19;58.39
9521;BME280;4798;41.574;23.734;2024-01-10T07:57:41;96215.50;;;5.85;58.38
9521;BME280;4798;41.574;23.734;2024-01-10T08:00:11;96272.13;;;6.12;57.38
9521;BME280;4798;41.574;23.734;2024-01-10T08:02:40;96273.38;;;5.85;57.83
9521;BME280;4798;41.574;23.734;2024-01-10T08:05:09;96260.19;;;5.91;58.45
9521;BME280;4798;41.574;23.734;2024-01-10T08:07:38;96269.28;;;6.31;58.00
9521;BME280;4798;41.574;23.734;2024-01-10T08:10:08;96272.63;;;6.38;57.61
9521;BME280;4798;41.574;23.734;2024-01-10T08:12:38;96274.22;;;6.76;56.07
9521;BME280;4798;41.574;23.734;2024-01-10T08:15:08;96268.50;;;6.79;55.83
9521;BME280;4798;41.574;23.734;2024-01-10T08:17:37;96224.56;;;6.43;55.38
9521;BME280;4798;41.574;23.734;2024-01-10T08:20:08;96271.16;;;6.79;54.88
9521;BME280;4798;41.574;23.734;2024-01-10T08:22:38;96267.50;;;6.80;55.33
9521;BME280;4798;41.574;23.734;2024-01-10T08:25:08;96138.59;;;5.64;56.32
9521;BME280;4798;41.574;23.734;2024-01-10T08:27:38;96227.03;;;6.74;55.98
9521;BME280;4798;41.574;23.734;2024-01-10T08:30:11;96258.63;;;6.92;57.01
9521;BME280;4798;41.574;23.734;2024-01-10T08:32:40;96274.34;;;6.81;55.84
9521;BME280;4798;41.574;23.734;2024-01-10T08:35:08;96241.75;;;6.64;55.91
9521;BME280;4798;41.574;23.734;2024-01-10T08:37:38;96280.72;;;6.91;57.31
9521;BME280;4798;41.574;23.734;2024-01-10T08:40:10;96278.63;;;6.64;55.17
9521;BME280;4798;41.574;23.734;2024-01-10T08:42:43;96277.28;;;6.91;55.08
9521;BME280;4798;41.574;23.734;2024-01-10T08:45:12;96274.59;;;7.09;55.86
9521;BME280;4798;41.574;23.734;2024-01-10T08:47:42;96276.69;;;6.89;54.27
9521;BME280;4798;41.574;23.734;2024-01-10T08:50:10;96278.59;;;7.00;54.48
9521;BME280;4798;41.574;23.734;2024-01-10T08:52:39;96272.28;;;7.01;53.75
9521;BME280;4798;41.574;23.734;2024-01-10T08:55:08;96270.66;;;6.70;54.26
9521;BME280;4798;41.574;23.734;2024-01-10T08:57:40;96267.94;;;6.77;53.79
9521;BME280;4798;41.574;23.734;2024-01-10T09:00:15;96267.19;;;6.88;53.71
9521;BME280;4798;41.574;23.734;2024-01-10T09:02:44;96260.59;;;7.38;53.74
9521;BME280;4798;41.574;23.734;2024-01-10T09:05:12;96265.38;;;7.83;54.42
9521;BME280;4798;41.574;23.734;2024-01-10T09:07:41;96240.69;;;7.77;54.72
9521;BME280;4798;41.574;23.734;2024-01-10T09:10:10;96249.09;;;8.09;53.84
9521;BME280;4798;41.574;23.734;2024-01-10T09:12:38;96230.59;;;7.97;52.75
9521;BME280;4798;41.574;23.734;2024-01-10T09:15:12;96238.16;;;8.17;53.36
9521;BME280;4798;41.574;23.734;2024-01-10T09:17:41;96241.44;;;8.59;51.08
9521;BME280;4798;41.574;23.734;2024-01-10T09:20:10;96236.56;;;8.79;51.92
9521;BME280;4798;41.574;23.734;2024-01-10T09:22:39;96226.44;;;8.24;51.69
9521;BME280;4798;41.574;23.734;2024-01-10T09:25:09;96239.16;;;8.90;50.90
9521;BME280;4798;41.574;23.734;2024-01-10T09:27:39;96231.03;;;9.09;50.93
9521;BME280;4798;41.574;23.734;2024-01-10T09:30:09;96228.69;;;9.57;50.28
9521;BME280;4798;41.574;23.734;2024-01-10T09:32:39;96212.13;;;10.00;51.10
9521;BME280;4798;41.574;23.734;2024-01-10T09:35:08;96199.47;;;10.18;48.40
9521;BME280;4798;41.574;23.734;2024-01-10T09:37:37;96203.03;;;10.51;48.32
9521;BME280;4798;41.574;23.734;2024-01-10T09:40:07;96211.25;;;10.11;48.28
9521;BME280;4798;41.574;23.734;2024-01-10T09:42:36;96163.47;;;10.23;48.88
9521;BME280;4798;41.574;23.734;2024-01-10T09:45:06;96209.09;;;10.46;48.18
9521;BME280;4798;41.574;23.734;2024-01-10T09:47:38;96206.28;;;10.58;46.82
9521;BME280;4798;41.574;23.734;2024-01-10T09:50:10;96205.31;;;11.12;47.78
9521;BME280;4798;41.574;23.734;2024-01-10T09:52:42;96194.50;;;10.92;45.88
9521;BME280;4798;41.574;23.734;2024-01-10T09:55:15;96179.34;;;11.14;46.18
9521;BME280;4798;41.574;23.734;2024-01-10T09:57:46;96195.84;;;12.22;44.48
9521;BME280;4798;41.574;23.734;2024-01-10T10:00:15;96120.16;;;12.39;43.23
9521;BME280;4798;41.574;23.734;2024-01-10T10:02:47;96178.88;;;14.16;42.18
9521;BME280;4798;41.574;23.734;2024-01-10T10:05:17;96177.31;;;13.69;40.65
9521;BME280;4798;41.574;23.734;2024-01-10T10:07:46;96165.81;;;14.88;40.28
9521;BME280;4798;41.574;23.734;2024-01-10T10:10:17;96122.19;;;15.47;38.60
9521;BME280;4798;41.574;23.734;2024-01-10T10:12:46;96169.91;;;16.39;36.62
9521;BME280;4798;41.574;23.734;2024-01-10T10:15:16;96102.97;;;16.44;38.27
9521;BME280;4798;41.574;23.734;2024-01-10T10:17:48;96161.31;;;16.42;36.08
9521;BME280;4798;41.574;23.734;2024-01-10T10:20:20;96078.81;;;16.49;35.89
9521;BME280;4798;41.574;23.734;2024-01-10T10:23:00;96145.03;;;17.24;36.81
9521;BME280;4798;41.574;23.734;2024-01-10T10:25:31;96142.25;;;16.54;35.41
9521;BME280;4798;41.574;23.734;2024-01-10T10:28:02;96126.22;;;18.07;34.90
9521;BME280;4798;41.574;23.734;2024-01-10T10:30:32;96130.81;;;18.20;33.86
9521;BME280;4798;41.574;23.734;2024-01-10T10:33:03;96129.19;;;17.08;35.92
9521;BME280;4798;41.574;23.734;2024-01-10T10:35:33;96114.38;;;16.31;36.58
9521;BME280;4798;41.574;23.734;2024-01-10T10:38:08;96126.13;;;15.83;37.26
9521;BME280;4798;41.574;23.734;2024-01-10T10:40:37;96126.28;;;15.29;37.28
9521;BME280;4798;41.574;23.734;2024-01-10T10:43:13;96045.97;;;16.02;36.35
9521;BME280;4798;41.574;23.734;2024-01-10T10:45:47;96037.28;;;16.76;35.91
9521;BME280;4798;41.574;23.734;2024-01-10T10:48:18;96100.81;;;16.46;35.34
9521;BME280;4798;41.574;23.734;2024-01-10T10:50:56;96084.78;;;16.46;35.90
9521;BME280;4798;41.574;23.734;2024-01-10T10:53:27;96090.06;;;17.26;34.72
9521;BME280;4798;41.574;23.734;2024-01-10T10:55:59;96087.19;;;19.05;33.76
9521;BME280;4798;41.574;23.734;2024-01-10T10:58:29;96085.91;;;18.53;32.71
9521;BME280;4798;41.574;23.734;2024-01-10T11:01:01;96033.75;;;18.67;33.23
9521;BME280;4798;41.574;23.734;2024-01-10T11:03:36;96071.94;;;19.36;32.13
9521;BME280;4798;41.574;23.734;2024-01-10T11:06:05;96076.34;;;19.54;32.18
9521;BME280;4798;41.574;23.734;2024-01-10T11:08:37;96048.19;;;19.29;30.64
9521;BME280;4798;41.574;23.734;2024-01-10T11:11:19;96065.06;;;20.05;31.22
9521;BME280;4798;41.574;23.734;2024-01-10T11:14:01;96057.66;;;20.19;30.51
9521;BME280;4798;41.574;23.734;2024-01-10T11:17:12;96050.41;;;18.69;32.15
9521;BME280;4798;41.574;23.734;2024-01-10T11:20:12;96035.22;;;19.84;31.55
9521;BME280;4798;41.574;23.734;2024-01-10T11:22:51;96048.22;;;18.30;31.88
9521;BME280;4798;41.574;23.734;2024-01-10T11:25:22;96038.19;;;18.36;32.97
9521;BME280;4798;41.574;23.734;2024-01-10T11:27:52;96033.94;;;18.84;31.84
9521;BME280;4798;41.574;23.734;2024-01-10T11:30:33;96036.50;;;18.89;32.58
9521;BME280;4798;41.574;23.734;2024-01-10T11:33:18;96023.22;;;18.21;31.61
9521;BME280;4798;41.574;23.734;2024-01-10T11:36:13;96025.88;;;18.49;31.22
9521;BME280;4798;41.574;23.734;2024-01-10T11:38:45;96024.91;;;19.47;31.83
9521;BME280;4798;41.574;23.734;2024-01-10T11:41:21;96013.28;;;19.16;31.13
9521;BME280;4798;41.574;23.734;2024-01-10T11:44:25;96015.31;;;19.94;29.99
9521;BME280;4798;41.574;23.734;2024-01-10T11:46:55;96008.84;;;20.43;30.88
9521;BME280;4798;41.574;23.734;2024-01-10T11:49:25;95987.53;;;19.68;32.52
9521;BME280;4798;41.574;23.734;2024-01-10T11:51:56;96015.56;;;19.22;33.54
9521;BME280;4798;41.574;23.734;2024-01-10T11:54:36;96005.69;;;19.62;31.96
9521;BME280;4798;41.574;23.734;2024-01-10T11:57:08;96008.50;;;19.57;30.52
9521;BME280;4798;41.574;23.734;2024-01-10T11:59:38;95977.75;;;20.28;30.80
9521;BME280;4798;41.574;23.734;2024-01-10T12:02:07;95996.97;;;20.04;31.03
9521;BME280;4798;41.574;23.734;2024-01-10T12:04:36;95990.38;;;18.38;31.28
9521;BME280;4798;41.574;23.734;2024-01-10T12:07:17;95972.84;;;18.05;32.88
9521;BME280;4798;41.574;23.734;2024-01-10T12:09:48;95985.84;;;17.84;32.85
9521;BME280;4798;41.574;23.734;2024-01-10T12:12:17;95988.72;;;18.15;32.63
9521;BME280;4798;41.574;23.734;2024-01-10T12:14:46;95994.88;;;18.29;32.32
9521;BME280;4798;41.574;23.734;2024-01-10T12:17:14;95992.56;;;18.36;31.68
9521;BME280;4798;41.574;23.734;2024-01-10T12:19:43;95994.63;;;18.88;32.28
9521;BME280;4798;41.574;23.734;2024-01-10T12:22:17;95991.91;;;19.55;31.25
9521;BME280;4798;41.574;23.734;2024-01-10T12:24:48;95988.25;;;19.29;30.99
9521;BME280;4798;41.574;23.734;2024-01-10T12:27:18;95984.94;;;19.93;30.94
9521;BME280;4798;41.574;23.734;2024-01-10T12:29:49;95982.97;;;19.37;30.99
9521;BME280;4798;41.574;23.734;2024-01-10T12:32:20;95997.53;;;18.56;32.03
9521;BME280;4798;41.574;23.734;2024-01-10T12:35:00;95990.09;;;18.26;32.05
9521;BME280;4798;41.574;23.734;2024-01-10T12:37:31;95921.22;;;17.72;32.57
9521;BME280;4798;41.574;23.734;2024-01-10T12:40:00;95997.88;;;18.14;32.17
9521;BME280;4798;41.574;23.734;2024-01-10T12:42:36;95998.38;;;17.29;32.73
9521;BME280;4798;41.574;23.734;2024-01-10T12:45:06;95997.88;;;17.59;32.77
9521;BME280;4798;41.574;23.734;2024-01-10T12:47:48;95994.19;;;18.10;33.21
9521;BME280;4798;41.574;23.734;2024-01-10T12:50:17;95999.09;;;17.35;33.27
9521;BME280;4798;41.574;23.734;2024-01-10T12:52:47;95974.59;;;16.02;34.48
9521;BME280;4798;41.574;23.734;2024-01-10T12:55:16;95995.03;;;15.93;35.23
9521;BME280;4798;41.574;23.734;2024-01-10T12:57:45;96000.69;;;17.49;33.48
9521;BME280;4798;41.574;23.734;2024-01-10T13:00:13;95995.88;;;17.65;33.51
9521;BME280;4798;41.574;23.734;2024-01-10T13:02:42;95999.22;;;17.11;33.01
9521;BME280;4798;41.574;23.734;2024-01-10T13:05:11;95996.75;;;18.15;32.54
9521;BME280;4798;41.574;23.734;2024-01-10T13:07:39;96001.44;;;18.23;32.46
9521;BME280;4798;41.574;23.734;2024-01-10T13:10:10;95985.38;;;19.25;31.72
9521;BME280;4798;41.574;23.734;2024-01-10T13:12:46;95998.81;;;18.81;31.33
9521;BME280;4798;41.574;23.734;2024-01-10T13:15:40;95995.66;;;19.01;31.69
9521;BME280;4798;41.574;23.734;2024-01-10T13:18:09;95956.69;;;18.90;30.64
9521;BME280;4798;41.574;23.734;2024-01-10T13:20:38;95981.28;;;19.06;31.04
9521;BME280;4798;41.574;23.734;2024-01-10T13:23:07;95993.06;;;18.38;31.58
9521;BME280;4798;41.574;23.734;2024-01-10T13:25:37;95924.22;;;17.70;31.82
9521;BME280;4798;41.574;23.734;2024-01-10T13:28:06;95988.34;;;17.94;32.49
9521;BME280;4798;41.574;23.734;2024-01-10T13:30:34;95984.25;;;17.97;32.09
9521;BME280;4798;41.574;23.734;2024-01-10T13:33:03;96001.84;;;18.16;32.15
9521;BME280;4798;41.574;23.734;2024-01-10T13:35:32;95999.19;;;17.30;32.93